Time;durP1;ratioP1;P1;durP2;ratioP2;P2;SDS_P1;SDS_P2;PMS_P1;PMS_P2;Temp;Humidity;BMP_temperature;BMP_pressure;BME280_temperature;BME280_humidity;BME280_pressure;Samples;Min_cycle;Max_cycle;Signal;HPM_P1;HPM_P2
2022/02/02 00:01:43;;;;;;;19.52;9.05;;;;;;;4.89;100.00;100348.63;20905316;28;20044;-69
2022/02/02 00:12:49;;;;;;;16.85;9.00;;;;;;;4.75;100.00;100347.69;20902573;28;20306;-68
2022/02/02 00:22:20;;;;;;;14.35;7.38;;;;;;;5.02;100.00;100343.50;20899195;28;20057;-69
2022/02/02 00:42:35;;;;;;;13.02;5.90;;;;;;;5.57;100.00;100341.19;20903341;28;20056;-69
2022/02/02 00:52:37;;;;;;;10.60;4.93;;;;;;;5.57;100.00;100351.56;20902311;28;20045;-69
2022/02/02 01:02:38;;;;;;;10.27;4.45;;;;;;;5.47;100.00;100360.19;20900077;28;20040;-69
2022/02/02 01:13:04;;;;;;;11.45;4.80;;;;;;;5.25;100.00;100375.66;20900587;28;20123;-69
2022/02/02 01:33:22;;;;;;;13.40;6.13;;;;;;;5.09;100.00;100374.69;20897495;28;20469;-69
2022/02/02 01:43:27;;;;;;;14.93;7.85;;;;;;;4.97;100.00;100404.88;20899063;28;20708;-69
2022/02/02 02:03:30;;;;;;;23.52;11.00;;;;;;;5.04;100.00;100404.94;20907729;28;20099;-68
2022/02/02 02:23:39;;;;;;;18.42;10.32;;;;;;;5.24;100.00;100396.41;20911134;28;20179;-68
2022/02/02 02:34:12;;;;;;;24.08;11.10;;;;;;;5.24;100.00;100425.84;20912323;28;20406;-68
2022/02/02 03:56:37;;;;;;;17.52;6.55;;;;;;;5.37;100.00;100453.63;20905989;28;20068;-69
2022/02/02 04:06:57;;;;;;;14.82;5.38;;;;;;;5.34;100.00;100453.59;20904840;28;20057;-69
2022/02/02 04:37:46;;;;;;;15.68;6.20;;;;;;;5.20;100.00;100463.00;20899951;28;20056;-69
2022/02/02 05:08:18;;;;;;;18.25;6.13;;;;;;;5.37;100.00;100495.16;20899478;28;20049;-68
2022/02/02 05:49:31;;;;;;;22.75;6.07;;;;;;;5.57;100.00;100528.19;20865641;28;20098;-69
2022/02/02 05:59:32;;;;;;;13.80;5.63;;;;;;;5.63;100.00;100525.63;20896846;28;20045;-68
2022/02/02 06:09:37;;;;;;;23.05;9.00;;;;;;;5.64;100.00;100535.13;20897585;28;20114;-68
2022/02/02 06:19:38;;;;;;;22.50;5.63;;;;;;;5.72;100.00;100538.66;20897953;28;20045;-68
2022/02/02 06:29:43;;;;;;;24.90;5.55;;;;;;;5.81;100.00;100551.72;20898305;28;20049;-68
2022/02/02 06:39:45;;;;;;;18.52;4.50;;;;;;;5.96;100.00;100571.75;20896803;28;20045;-68
2022/02/02 06:49:49;;;;;;;18.55;4.80;;;;;;;5.84;100.00;100585.50;20906297;28;20410;-68
2022/02/02 07:20:40;;;;;;;19.73;6.10;;;;;;;6.04;100.00;100610.81;20908055;28;19920;-68
2022/02/02 07:30:57;;;;;;;25.17;7.07;;;;;;;6.06;100.00;100617.72;20909222;28;20468;-68
2022/02/02 07:41:08;;;;;;;24.88;6.93;;;;;;;6.15;100.00;100627.31;20883600;28;20045;-68
2022/02/02 07:51:10;;;;;;;18.10;6.13;;;;;;;6.29;100.00;100628.25;20894176;28;20044;-68
2022/02/02 08:01:14;;;;;;;17.77;5.90;;;;;;;6.36;100.00;100653.44;20893364;28;20041;-68
2022/02/02 08:11:25;;;;;;;16.85;5.70;;;;;;;6.52;100.00;100654.41;20845031;28;20053;-68
2022/02/02 08:21:27;;;;;;;14.55;4.70;;;;;;;6.62;100.00;100686.53;20840552;28;20045;-67
2022/02/02 08:31:29;;;;;;;23.52;5.07;;;;;;;6.75;100.00;100677.91;20838566;28;20081;-68
2022/02/02 08:41:36;;;;;;;23.42;5.05;;;;;;;6.85;100.00;100681.41;20836674;28;20033;-69
2022/02/02 08:51:41;;;;;;;19.35;4.85;;;;;;;7.05;99.05;100671.09;20876936;28;20063;-69
2022/02/02 09:01:43;;;;;;;20.05;4.70;;;;;;;7.29;97.90;100659.88;20892846;28;20049;-69
2022/02/02 09:42:35;;;;;;;20.33;4.00;;;;;;;8.18;91.81;100716.34;20866612;28;20140;-73
2022/02/02 09:52:41;;;;;;;20.40;4.20;;;;;;;8.37;90.01;100735.50;20881881;28;20122;-73
2022/02/02 10:23:22;;;;;;;16.55;3.90;;;;;;;8.62;87.33;100785.03;20898740;28;20136;-74
2022/02/02 10:33:27;;;;;;;17.27;4.15;;;;;;;8.59;87.88;100793.75;20903458;28;20049;-75
2022/02/02 10:43:38;;;;;;;18.58;4.32;;;;;;;8.72;85.18;100794.63;20903368;28;20114;-74
2022/02/02 11:14:13;;;;;;;22.33;4.40;;;;;;;9.06;81.93;100778.88;20900440;28;20053;-74
2022/02/02 11:24:17;;;;;;;15.40;3.42;;;;;;;9.18;82.13;100773.56;20901774;28;20437;-74
2022/02/02 11:34:20;;;;;;;14.77;4.47;;;;;;;9.23;82.17;100763.97;20902425;28;20121;-74
2022/02/02 11:44:41;;;;;;;19.50;4.05;;;;;;;9.18;81.28;100770.97;20901468;28;20175;-75
2022/02/02 11:54:46;;;;;;;18.70;4.75;;;;;;;9.17;81.34;100777.06;20900488;28;20052;-73
2022/02/02 12:05:05;;;;;;;21.23;4.35;;;;;;;9.43;79.94;100795.22;20899234;28;20111;-74
2022/02/02 12:56:22;;;;;;;19.93;4.40;;;;;;;8.57;96.20;100825.94;20893187;28;20548;-76
2022/02/02 13:06:24;;;;;;;19.77;4.22;;;;;;;8.50;93.42;100838.13;20888047;28;20079;-75
2022/02/02 13:16:27;;;;;;;16.77;3.55;;;;;;;8.81;89.60;100849.41;20880421;28;20129;-74
2022/02/02 13:36:54;;;;;;;13.25;2.90;;;;;;;8.97;87.21;100873.78;20886822;28;20088;-74
2022/02/02 13:47:34;;;;;;;12.37;2.73;;;;;;;9.04;86.81;100874.63;20883410;28;20457;-74
2022/02/02 13:58:27;;;;;;;7.40;2.05;;;;;;;9.00;91.28;100889.41;20893410;28;20136;-74
2022/02/02 14:34:55;;;;;;;5.80;2.00;;;;;;;8.74;95.73;100926.88;20878971;28;20048;-73
2022/02/02 14:45:03;;;;;;;7.00;2.22;;;;;;;8.81;94.25;100909.47;20921176;28;20483;-74
2022/02/02 16:06:46;;;;;;;5.40;2.33;;;;;;;8.37;97.04;100998.16;20859208;28;20092;-81
2022/02/02 16:17:10;;;;;;;6.68;2.42;;;;;;;8.33;97.91;100992.00;20861908;28;20052;-77
2022/02/02 16:37:41;;;;;;;6.50;2.05;;;;;;;8.01;100.00;100991.06;20856585;28;20107;-76
2022/02/02 16:47:43;;;;;;;7.18;2.30;;;;;;;7.78;100.00;100991.81;20859429;28;20053;-77
2022/02/02 17:39:16;;;;;;;8.88;4.00;;;;;;;7.74;100.00;101029.16;20851386;28;20052;-75
2022/02/02 18:20:16;;;;;;;8.77;4.38;;;;;;;7.53;100.00;101060.28;20849389;28;20041;-75
2022/02/02 19:00:59;;;;;;;10.23;5.07;;;;;;;7.71;100.00;101089.06;20944775;28;20329;-76
2022/02/02 19:52:39;;;;;;;13.00;8.68;;;;;;;7.61;100.00;101106.38;20942314;28;20056;-76
2022/02/02 20:03:03;;;;;;;13.32;7.65;;;;;;;7.67;100.00;101111.66;20940543;28;20056;-75
2022/02/02 20:13:03;;;;;;;12.43;7.80;;;;;;;7.64;100.00;101113.34;20941583;28;20482;-77
2022/02/02 20:23:06;;;;;;;13.13;8.82;;;;;;;7.59;100.00;101113.31;20939540;28;20071;-76
2022/02/02 20:33:07;;;;;;;20.33;12.00;;;;;;;7.58;100.00;101108.97;20929236;28;20049;-75
2022/02/02 20:43:13;;;;;;;20.20;12.52;;;;;;;7.58;100.00;101105.50;20937328;28;20563;-75
2022/02/02 21:04:04;;;;;;;23.92;13.90;;;;;;;7.58;100.00;101115.91;20934315;28;20073;-80
2022/02/02 21:14:02;;;;;;;23.15;13.70;;;;;;;7.57;100.00;101108.94;20938356;28;20049;-70
2022/02/02 21:34:22;;;;;;;31.35;16.95;;;;;;;7.56;100.00;101107.19;20927747;28;20102;-70
2022/02/02 21:44:24;;;;;;;18.42;11.98;;;;;;;7.56;100.00;101102.00;20938049;28;20482;-71
2022/02/02 21:54:28;;;;;;;17.30;10.07;;;;;;;7.63;100.00;101114.22;20931537;28;20421;-72
2022/02/02 22:04:31;;;;;;;18.23;11.48;;;;;;;7.78;100.00;101122.16;20929274;28;20111;-76
2022/02/02 22:14:33;;;;;;;15.57;10.65;;;;;;;7.79;100.00;101125.63;20936887;28;20142;-75
2022/02/02 22:24:37;;;;;;;17.75;11.32;;;;;;;7.71;100.00;101125.56;20933607;28;20058;-74
2022/02/02 22:34:39;;;;;;;38.37;21.77;;;;;;;7.65;100.00;101130.72;20946004;28;20423;-75
2022/02/02 22:44:40;;;;;;;26.83;15.88;;;;;;;7.64;100.00;101148.09;20949101;28;20098;-75
2022/02/02 22:54:42;;;;;;;21.13;12.73;;;;;;;7.60;100.00;101145.47;20945383;28;20125;-74
2022/02/02 23:04:44;;;;;;;33.72;18.55;;;;;;;7.60;100.00;101127.22;20950988;28;20119;-73
2022/02/02 23:14:46;;;;;;;29.42;18.65;;;;;;;7.56;100.00;101123.72;20952942;28;20502;-73
2022/02/02 23:24:52;;;;;;;23.27;14.82;;;;;;;7.59;100.00;101154.16;20951272;28;20049;-72
2022/02/02 23:34:54;;;;;;;25.60;14.55;;;;;;;7.60;100.00;101153.28;20950501;28;20049;-73
2022/02/02 23:44:55;;;;;;;18.55;11.40;;;;;;;7.60;100.00;101156.75;20950127;28;20044;-72
2022/02/02 23:54:58;;;;;;;14.23;9.13;;;;;;;7.63;100.00;101145.50;20950450;28;20049;-72
